sensor_id;sensor_type;location;lat;lon;timestamp;temperature;humidity
40059;SHT31;25763;49.972;8.568;2023-08-21T00:00:14;23.92;75.91
40059;SHT31;25763;49.972;8.568;2023-08-21T00:02:40;23.79;76.43
40059;SHT31;25763;49.972;8.568;2023-08-21T00:05:06;23.82;76.54
40059;SHT31;25763;49.972;8.568;2023-08-21T00:07:31;23.85;76.25
40059;SHT31;25763;49.972;8.568;2023-08-21T00:09:57;23.89;76.30
40059;SHT31;25763;49.972;8.568;2023-08-21T00:12:22;23.86;76.60
40059;SHT31;25763;49.972;8.568;2023-08-21T00:14:47;23.83;76.38
40059;SHT31;25763;49.972;8.568;2023-08-21T00:17:13;23.76;76.68
40059;SHT31;25763;49.972;8.568;2023-08-21T00:19:38;23.69;76.68
40059;SHT31;25763;49.972;8.568;2023-08-21T00:22:03;23.57;77.25
40059;SHT31;25763;49.972;8.568;2023-08-21T00:24:29;23.50;77.40
40059;SHT31;25763;49.972;8.568;2023-08-21T00:26:54;23.43;77.61
40059;SHT31;25763;49.972;8.568;2023-08-21T00:29:19;23.41;77.76
40059;SHT31;25763;49.972;8.568;2023-08-21T00:31:45;23.50;77.30
40059;SHT31;25763;49.972;8.568;2023-08-21T00:34:11;23.52;77.33
40059;SHT31;25763;49.972;8.568;2023-08-21T00:36:36;23.59;77.14
40059;SHT31;25763;49.972;8.568;2023-08-21T00:39:01;23.41;77.65
40059;SHT31;25763;49.972;8.568;2023-08-21T00:41:27;23.37;77.62
40059;SHT31;25763;49.972;8.568;2023-08-21T00:43:52;23.35;77.63
40059;SHT31;25763;49.972;8.568;2023-08-21T00:46:17;23.26;78.03
40059;SHT31;25763;49.972;8.568;2023-08-21T00:48:44;23.31;77.80
40059;SHT31;25763;49.972;8.568;2023-08-21T00:51:10;23.37;77.73
40059;SHT31;25763;49.972;8.568;2023-08-21T00:53:37;23.34;77.70
40059;SHT31;25763;49.972;8.568;2023-08-21T00:56:03;23.38;77.58
40059;SHT31;25763;49.972;8.568;2023-08-21T00:58:29;23.37;77.62
40059;SHT31;25763;49.972;8.568;2023-08-21T01:00:54;23.37;77.59
40059;SHT31;25763;49.972;8.568;2023-08-21T01:03:20;23.34;77.64
40059;SHT31;25763;49.972;8.568;2023-08-21T01:05:45;23.33;77.67
40059;SHT31;25763;49.972;8.568;2023-08-21T01:08:24;23.31;77.68
40059;SHT31;25763;49.972;8.568;2023-08-21T01:11:15;23.28;77.67
40059;SHT31;25763;49.972;8.568;2023-08-21T01:16:53;23.27;77.75
40059;SHT31;25763;49.972;8.568;2023-08-21T01:19:30;23.26;77.68
40059;SHT31;25763;49.972;8.568;2023-08-21T01:21:58;23.26;77.74
40059;SHT31;25763;49.972;8.568;2023-08-21T01:24:23;23.19;77.87
40059;SHT31;25763;49.972;8.568;2023-08-21T01:26:48;23.24;77.88
40059;SHT31;25763;49.972;8.568;2023-08-21T01:29:14;23.19;77.87
40059;SHT31;25763;49.972;8.568;2023-08-21T01:31:41;23.13;77.93
40059;SHT31;25763;49.972;8.568;2023-08-21T01:34:11;23.10;77.97
40059;SHT31;25763;49.972;8.568;2023-08-21T01:36:37;23.10;78.08
40059;SHT31;25763;49.972;8.568;2023-08-21T01:39:04;23.04;78.14
40059;SHT31;25763;49.972;8.568;2023-08-21T01:41:29;23.04;78.27
40059;SHT31;25763;49.972;8.568;2023-08-21T01:43:55;23.03;78.26
40059;SHT31;25763;49.972;8.568;2023-08-21T01:46:20;23.02;78.28
40059;SHT31;25763;49.972;8.568;2023-08-21T01:48:46;22.99;78.36
40059;SHT31;25763;49.972;8.568;2023-08-21T01:51:11;22.95;78.44
40059;SHT31;25763;49.972;8.568;2023-08-21T01:53:36;22.95;78.46
40059;SHT31;25763;49.972;8.568;2023-08-21T01:56:02;22.92;78.42
40059;SHT31;25763;49.972;8.568;2023-08-21T01:58:27;22.91;78.54
40059;SHT31;25763;49.972;8.568;2023-08-21T02:00:52;22.92;78.48
40059;SHT31;25763;49.972;8.568;2023-08-21T02:03:18;22.88;78.55
40059;SHT31;25763;49.972;8.568;2023-08-21T02:05:43;22.85;78.66
40059;SHT31;25763;49.972;8.568;2023-08-21T02:08:11;22.79;78.72
40059;SHT31;25763;49.972;8.568;2023-08-21T02:10:37;22.75;78.86
40059;SHT31;25763;49.972;8.568;2023-08-21T02:13:02;22.72;78.98
40059;SHT31;25763;49.972;8.568;2023-08-21T02:15:28;22.69;79.08
40059;SHT31;25763;49.972;8.568;2023-08-21T02:17:53;22.65;79.11
40059;SHT31;25763;49.972;8.568;2023-08-21T02:20:19;22.63;79.23
40059;SHT31;25763;49.972;8.568;2023-08-21T02:22:45;22.58;79.17
40059;SHT31;25763;49.972;8.568;2023-08-21T02:25:10;22.60;79.24
40059;SHT31;25763;49.972;8.568;2023-08-21T02:27:36;22.57;79.43
40059;SHT31;25763;49.972;8.568;2023-08-21T02:30:01;22.51;79.53
40059;SHT31;25763;49.972;8.568;2023-08-21T02:32:26;22.51;79.63
40059;SHT31;25763;49.972;8.568;2023-08-21T02:34:52;22.44;79.74
40059;SHT31;25763;49.972;8.568;2023-08-21T02:37:17;22.45;79.78
40059;SHT31;25763;49.972;8.568;2023-08-21T02:39:42;22.40;79.91
40059;SHT31;25763;49.972;8.568;2023-08-21T02:42:08;22.41;79.93
40059;SHT31;25763;49.972;8.568;2023-08-21T02:44:33;22.36;79.97
40059;SHT31;25763;49.972;8.568;2023-08-21T02:46:58;22.34;80.08
40059;SHT31;25763;49.972;8.568;2023-08-21T02:49:24;22.33;80.07
40059;SHT31;25763;49.972;8.568;2023-08-21T02:51:49;22.30;80.09
40059;SHT31;25763;49.972;8.568;2023-08-21T02:54:14;22.29;80.15
40059;SHT31;25763;49.972;8.568;2023-08-21T02:56:40;22.27;80.17
40059;SHT31;25763;49.972;8.568;2023-08-21T02:59:05;22.24;80.17
40059;SHT31;25763;49.972;8.568;2023-08-21T03:01:31;22.22;80.23
40059;SHT31;25763;49.972;8.568;2023-08-21T03:03:57;22.20;80.18
40059;SHT31;25763;49.972;8.568;2023-08-21T03:06:22;22.09;80.11
40059;SHT31;25763;49.972;8.568;2023-08-21T03:08:47;22.06;80.13
40059;SHT31;25763;49.972;8.568;2023-08-21T03:11:13;22.06;80.03
40059;SHT31;25763;49.972;8.568;2023-08-21T03:13:38;22.06;80.07
40059;SHT31;25763;49.972;8.568;2023-08-21T03:16:04;21.99;80.11
40059;SHT31;25763;49.972;8.568;2023-08-21T03:18:30;21.85;80.68
40059;SHT31;25763;49.972;8.568;2023-08-21T03:20:56;21.89;80.37
40059;SHT31;25763;49.972;8.568;2023-08-21T03:23:22;21.88;80.49
40059;SHT31;25763;49.972;8.568;2023-08-21T03:25:47;21.89;80.43
40059;SHT31;25763;49.972;8.568;2023-08-21T03:28:13;21.92;80.35
40059;SHT31;25763;49.972;8.568;2023-08-21T03:30:41;21.87;80.30
40059;SHT31;25763;49.972;8.568;2023-08-21T03:33:06;21.79;80.68
40059;SHT31;25763;49.972;8.568;2023-08-21T03:35:33;21.73;80.95
40059;SHT31;25763;49.972;8.568;2023-08-21T03:37:58;21.67;81.19
40059;SHT31;25763;49.972;8.568;2023-08-21T03:40:24;21.70;81.05
40059;SHT31;25763;49.972;8.568;2023-08-21T03:42:49;21.68;81.31
40059;SHT31;25763;49.972;8.568;2023-08-21T03:45:14;21.58;82.01
40059;SHT31;25763;49.972;8.568;2023-08-21T03:47:40;21.49;82.67
40059;SHT31;25763;49.972;8.568;2023-08-21T03:50:05;21.49;82.44
40059;SHT31;25763;49.972;8.568;2023-08-21T03:52:31;21.54;82.10
40059;SHT31;25763;49.972;8.568;2023-08-21T03:54:56;21.57;81.85
40059;SHT31;25763;49.972;8.568;2023-08-21T03:57:22;21.53;81.68
40059;SHT31;25763;49.972;8.568;2023-08-21T03:59:47;21.54;81.80
40059;SHT31;25763;49.972;8.568;2023-08-21T04:02:12;21.50;81.98
40059;SHT31;25763;49.972;8.568;2023-08-21T04:04:38;21.43;82.43
40059;SHT31;25763;49.972;8.568;2023-08-21T04:07:03;21.46;82.07
40059;SHT31;25763;49.972;8.568;2023-08-21T04:09:28;21.50;81.86
40059;SHT31;25763;49.972;8.568;2023-08-21T04:11:54;21.50;81.76
40059;SHT31;25763;49.972;8.568;2023-08-21T04:14:19;21.50;81.67
40059;SHT31;25763;49.972;8.568;2023-08-21T04:16:44;21.49;81.59
40059;SHT31;25763;49.972;8.568;2023-08-21T04:19:10;21.50;81.48
40059;SHT31;25763;49.972;8.568;2023-08-21T04:21:35;21.50;81.42
40059;SHT31;25763;49.972;8.568;2023-08-21T04:24:01;21.43;81.63
40059;SHT31;25763;49.972;8.568;2023-08-21T04:26:26;21.43;81.73
40059;SHT31;25763;49.972;8.568;2023-08-21T04:28:51;21.43;81.61
40059;SHT31;25763;49.972;8.568;2023-08-21T04:31:17;21.42;81.97
40059;SHT31;25763;49.972;8.568;2023-08-21T04:33:42;21.35;82.19
40059;SHT31;25763;49.972;8.568;2023-08-21T04:36:07;21.14;82.62
40059;SHT31;25763;49.972;8.568;2023-08-21T04:38:33;21.05;83.07
40059;SHT31;25763;49.972;8.568;2023-08-21T04:41:08;21.15;82.77
40059;SHT31;25763;49.972;8.568;2023-08-21T04:43:34;21.15;82.80
40059;SHT31;25763;49.972;8.568;2023-08-21T04:45:59;21.16;82.82
40059;SHT31;25763;49.972;8.568;2023-08-21T04:48:24;21.23;82.62
40059;SHT31;25763;49.972;8.568;2023-08-21T04:50:50;21.30;82.44
40059;SHT31;25763;49.972;8.568;2023-08-21T04:53:15;21.32;82.32
40059;SHT31;25763;49.972;8.568;2023-08-21T04:55:41;21.36;82.19
40059;SHT31;25763;49.972;8.568;2023-08-21T04:58:07;21.40;82.09
40059;SHT31;25763;49.972;8.568;2023-08-21T05:00:33;21.47;81.76
40059;SHT31;25763;49.972;8.568;2023-08-21T05:02:58;21.46;81.65
40059;SHT31;25763;49.972;8.568;2023-08-21T05:05:24;21.50;81.68
40059;SHT31;25763;49.972;8.568;2023-08-21T05:07:49;21.57;81.53
40059;SHT31;25763;49.972;8.568;2023-08-21T05:10:15;21.56;81.49
40059;SHT31;25763;49.972;8.568;2023-08-21T05:12:40;21.58;81.44
40059;SHT31;25763;49.972;8.568;2023-08-21T05:15:06;21.61;81.41
40059;SHT31;25763;49.972;8.568;2023-08-21T05:17:31;21.63;81.37
40059;SHT31;25763;49.972;8.568;2023-08-21T05:19:56;21.67;81.32
40059;SHT31;25763;49.972;8.568;2023-08-21T05:22:22;21.71;81.12
40059;SHT31;25763;49.972;8.568;2023-08-21T05:24:47;21.75;80.96
40059;SHT31;25763;49.972;8.568;2023-08-21T05:27:13;21.81;80.87
40059;SHT31;25763;49.972;8.568;2023-08-21T05:29:38;21.87;80.67
40059;SHT31;25763;49.972;8.568;2023-08-21T05:32:04;21.92;80.62
40059;SHT31;25763;49.972;8.568;2023-08-21T05:34:30;21.94;80.42
40059;SHT31;25763;49.972;8.568;2023-08-21T05:36:56;22.01;80.32
40059;SHT31;25763;49.972;8.568;2023-08-21T05:39:21;22.04;80.43
40059;SHT31;25763;49.972;8.568;2023-08-21T05:41:47;22.16;80.20
40059;SHT31;25763;49.972;8.568;2023-08-21T05:44:12;22.17;80.07
40059;SHT31;25763;49.972;8.568;2023-08-21T05:46:37;22.22;80.02
40059;SHT31;25763;49.972;8.568;2023-08-21T05:49:06;22.32;79.92
40059;SHT31;25763;49.972;8.568;2023-08-21T05:51:31;22.43;79.84
40059;SHT31;25763;49.972;8.568;2023-08-21T05:53:56;22.40;79.79
40059;SHT31;25763;49.972;8.568;2023-08-21T05:56:22;22.60;79.78
40059;SHT31;25763;49.972;8.568;2023-08-21T05:58:48;22.60;79.66
40059;SHT31;25763;49.972;8.568;2023-08-21T06:01:13;22.68;79.15
40059;SHT31;25763;49.972;8.568;2023-08-21T06:03:39;22.82;79.03
40059;SHT31;25763;49.972;8.568;2023-08-21T06:06:04;22.95;78.97
40059;SHT31;25763;49.972;8.568;2023-08-21T06:08:30;22.96;78.57
40059;SHT31;25763;49.972;8.568;2023-08-21T06:10:55;23.02;78.55
40059;SHT31;25763;49.972;8.568;2023-08-21T06:13:21;23.07;78.35
40059;SHT31;25763;49.972;8.568;2023-08-21T06:15:47;23.10;78.04
40059;SHT31;25763;49.972;8.568;2023-08-21T06:18:13;23.09;78.02
40059;SHT31;25763;49.972;8.568;2023-08-21T06:20:38;23.26;77.87
40059;SHT31;25763;49.972;8.568;2023-08-21T06:23:04;23.19;77.52
40059;SHT31;25763;49.972;8.568;2023-08-21T06:25:29;23.35;76.95
40059;SHT31;25763;49.972;8.568;2023-08-21T06:27:56;23.55;76.82
40059;SHT31;25763;49.972;8.568;2023-08-21T06:30:21;23.66;75.74
40059;SHT31;25763;49.972;8.568;2023-08-21T06:32:47;23.62;75.63
40059;SHT31;25763;49.972;8.568;2023-08-21T06:35:12;23.86;75.36
40059;SHT31;25763;49.972;8.568;2023-08-21T06:37:39;24.11;75.89
40059;SHT31;25763;49.972;8.568;2023-08-21T06:40:05;24.34;75.24
40059;SHT31;25763;49.972;8.568;2023-08-21T06:42:30;24.21;72.71
40059;SHT31;25763;49.972;8.568;2023-08-21T06:44:55;24.29;72.68
40059;SHT31;25763;49.972;8.568;2023-08-21T06:47:21;24.61;73.90
40059;SHT31;25763;49.972;8.568;2023-08-21T06:49:46;24.55;72.03
40059;SHT31;25763;49.972;8.568;2023-08-21T06:52:12;24.70;72.61
40059;SHT31;25763;49.972;8.568;2023-08-21T06:54:37;24.82;72.84
40059;SHT31;25763;49.972;8.568;2023-08-21T06:57:02;24.69;71.84
40059;SHT31;25763;49.972;8.568;2023-08-21T06:59:28;24.90;71.36
40059;SHT31;25763;49.972;8.568;2023-08-21T07:01:53;24.76;71.73
40059;SHT31;25763;49.972;8.568;2023-08-21T07:04:18;24.96;72.63
40059;SHT31;25763;49.972;8.568;2023-08-21T07:06:44;25.15;72.78
40059;SHT31;25763;49.972;8.568;2023-08-21T07:09:09;25.29;71.44
40059;SHT31;25763;49.972;8.568;2023-08-21T07:11:35;25.29;70.79
40059;SHT31;25763;49.972;8.568;2023-08-21T07:14:00;25.08;70.48
40059;SHT31;25763;49.972;8.568;2023-08-21T07:16:26;25.03;70.79
40059;SHT31;25763;49.972;8.568;2023-08-21T07:18:54;25.04;71.33
40059;SHT31;25763;49.972;8.568;2023-08-21T07:21:19;25.15;71.04
40059;SHT31;25763;49.972;8.568;2023-08-21T07:23:45;25.02;70.89
40059;SHT31;25763;49.972;8.568;2023-08-21T07:26:11;25.10;70.77
40059;SHT31;25763;49.972;8.568;2023-08-21T07:28:36;25.46;71.03
40059;SHT31;25763;49.972;8.568;2023-08-21T07:31:02;25.88;70.92
40059;SHT31;25763;49.972;8.568;2023-08-21T07:33:27;26.09;70.05
40059;SHT31;25763;49.972;8.568;2023-08-21T07:36:02;25.98;69.16
40059;SHT31;25763;49.972;8.568;2023-08-21T07:38:29;26.17;70.17
40059;SHT31;25763;49.972;8.568;2023-08-21T07:43:29;25.87;69.33
40059;SHT31;25763;49.972;8.568;2023-08-21T07:45:54;25.86;69.31
40059;SHT31;25763;49.972;8.568;2023-08-21T07:48:20;25.91;70.04
40059;SHT31;25763;49.972;8.568;2023-08-21T07:50:52;26.01;69.29
40059;SHT31;25763;49.972;8.568;2023-08-21T07:53:18;26.09;68.66
40059;SHT31;25763;49.972;8.568;2023-08-21T07:55:44;26.36;69.07
40059;SHT31;25763;49.972;8.568;2023-08-21T07:58:10;26.47;68.47
40059;SHT31;25763;49.972;8.568;2023-08-21T08:00:38;26.57;68.48
40059;SHT31;25763;49.972;8.568;2023-08-21T08:03:04;26.83;68.45
40059;SHT31;25763;49.972;8.568;2023-08-21T08:05:31;27.06;67.64
40059;SHT31;25763;49.972;8.568;2023-08-21T08:07:56;26.95;67.47
40059;SHT31;25763;49.972;8.568;2023-08-21T08:10:23;27.30;67.90
40059;SHT31;25763;49.972;8.568;2023-08-21T08:12:48;27.24;66.40
40059;SHT31;25763;49.972;8.568;2023-08-21T08:15:14;27.22;66.22
40059;SHT31;25763;49.972;8.568;2023-08-21T08:17:39;27.33;66.73
40059;SHT31;25763;49.972;8.568;2023-08-21T08:20:05;27.12;66.21
40059;SHT31;25763;49.972;8.568;2023-08-21T08:22:31;26.92;66.85
40059;SHT31;25763;49.972;8.568;2023-08-21T08:24:56;26.94;66.98
40059;SHT31;25763;49.972;8.568;2023-08-21T08:27:22;27.09;67.91
40059;SHT31;25763;49.972;8.568;2023-08-21T08:29:47;27.20;66.89
40059;SHT31;25763;49.972;8.568;2023-08-21T08:32:13;27.54;66.29
40059;SHT31;25763;49.972;8.568;2023-08-21T08:34:38;27.46;67.17
40059;SHT31;25763;49.972;8.568;2023-08-21T08:37:03;27.88;67.84
40059;SHT31;25763;49.972;8.568;2023-08-21T08:39:29;27.95;66.66
40059;SHT31;25763;49.972;8.568;2023-08-21T08:41:58;27.81;65.94
40059;SHT31;25763;49.972;8.568;2023-08-21T08:44:29;27.95;66.80
40059;SHT31;25763;49.972;8.568;2023-08-21T08:46:55;27.92;66.61
40059;SHT31;25763;49.972;8.568;2023-08-21T08:49:22;27.91;66.40
40059;SHT31;25763;49.972;8.568;2023-08-21T08:51:49;28.19;66.15
40059;SHT31;25763;49.972;8.568;2023-08-21T08:54:16;28.24;65.59
40059;SHT31;25763;49.972;8.568;2023-08-21T08:56:42;28.29;65.27
40059;SHT31;25763;49.972;8.568;2023-08-21T08:59:08;28.37;65.14
40059;SHT31;25763;49.972;8.568;2023-08-21T09:01:34;28.27;64.39
40059;SHT31;25763;49.972;8.568;2023-08-21T09:04:00;28.36;64.97
40059;SHT31;25763;49.972;8.568;2023-08-21T09:06:25;28.60;64.34
40059;SHT31;25763;49.972;8.568;2023-08-21T09:08:55;29.03;65.18
40059;SHT31;25763;49.972;8.568;2023-08-21T09:11:21;28.89;62.80
40059;SHT31;25763;49.972;8.568;2023-08-21T09:13:49;29.00;63.95
40059;SHT31;25763;49.972;8.568;2023-08-21T09:16:15;28.69;62.23
40059;SHT31;25763;49.972;8.568;2023-08-21T09:18:53;28.71;63.50
40059;SHT31;25763;49.972;8.568;2023-08-21T09:21:21;29.04;63.22
40059;SHT31;25763;49.972;8.568;2023-08-21T09:23:47;29.14;63.06
40059;SHT31;25763;49.972;8.568;2023-08-21T09:26:20;29.22;62.82
40059;SHT31;25763;49.972;8.568;2023-08-21T09:28:46;29.52;62.14
40059;SHT31;25763;49.972;8.568;2023-08-21T09:31:12;29.52;62.13
40059;SHT31;25763;49.972;8.568;2023-08-21T09:33:38;29.72;62.43
40059;SHT31;25763;49.972;8.568;2023-08-21T09:36:04;29.82;61.25
40059;SHT31;25763;49.972;8.568;2023-08-21T09:38:35;29.70;60.94
40059;SHT31;25763;49.972;8.568;2023-08-21T09:41:01;29.62;62.81
40059;SHT31;25763;49.972;8.568;2023-08-21T09:43:26;29.81;62.19
40059;SHT31;25763;49.972;8.568;2023-08-21T09:45:55;29.88;61.68
40059;SHT31;25763;49.972;8.568;2023-08-21T09:48:30;29.79;61.11
40059;SHT31;25763;49.972;8.568;2023-08-21T09:50:56;30.04;61.18
40059;SHT31;25763;49.972;8.568;2023-08-21T09:53:22;30.25;60.47
40059;SHT31;25763;49.972;8.568;2023-08-21T09:55:52;30.31;59.72
40059;SHT31;25763;49.972;8.568;2023-08-21T09:58:19;30.10;60.06
40059;SHT31;25763;49.972;8.568;2023-08-21T10:00:45;30.14;59.91
40059;SHT31;25763;49.972;8.568;2023-08-21T10:03:14;30.18;59.55
40059;SHT31;25763;49.972;8.568;2023-08-21T10:05:42;30.48;59.93
40059;SHT31;25763;49.972;8.568;2023-08-21T10:08:09;30.59;58.71
40059;SHT31;25763;49.972;8.568;2023-08-21T10:10:36;30.84;59.14
40059;SHT31;25763;49.972;8.568;2023-08-21T10:13:03;30.82;58.93
40059;SHT31;25763;49.972;8.568;2023-08-21T10:15:29;30.77;57.23
40059;SHT31;25763;49.972;8.568;2023-08-21T10:17:54;30.80;59.19
40059;SHT31;25763;49.972;8.568;2023-08-21T10:20:22;31.03;57.95
40059;SHT31;25763;49.972;8.568;2023-08-21T10:22:53;31.03;55.48
40059;SHT31;25763;49.972;8.568;2023-08-21T10:25:23;30.65;53.82
40059;SHT31;25763;49.972;8.568;2023-08-21T10:27:58;30.76;54.20
40059;SHT31;25763;49.972;8.568;2023-08-21T10:30:27;31.17;56.21
40059;SHT31;25763;49.972;8.568;2023-08-21T10:32:55;31.29;54.08
40059;SHT31;25763;49.972;8.568;2023-08-21T10:35:39;31.52;54.55
40059;SHT31;25763;49.972;8.568;2023-08-21T10:38:12;31.17;50.70
40059;SHT31;25763;49.972;8.568;2023-08-21T10:40:39;31.52;49.12
40059;SHT31;25763;49.972;8.568;2023-08-21T10:43:40;31.56;48.04
40059;SHT31;25763;49.972;8.568;2023-08-21T10:46:07;31.72;47.43
40059;SHT31;25763;49.972;8.568;2023-08-21T10:48:34;31.42;47.28
40059;SHT31;25763;49.972;8.568;2023-08-21T10:51:05;31.38;49.80
40059;SHT31;25763;49.972;8.568;2023-08-21T10:53:33;31.41;48.53
40059;SHT31;25763;49.972;8.568;2023-08-21T10:56:06;31.24;49.23
40059;SHT31;25763;49.972;8.568;2023-08-21T10:58:41;31.47;53.41
40059;SHT31;25763;49.972;8.568;2023-08-21T11:01:07;31.63;49.62
40059;SHT31;25763;49.972;8.568;2023-08-21T11:03:32;31.80;49.15
40059;SHT31;25763;49.972;8.568;2023-08-21T11:06:05;31.95;47.80
40059;SHT31;25763;49.972;8.568;2023-08-21T11:08:32;32.01;48.09
40059;SHT31;25763;49.972;8.568;2023-08-21T11:10:58;32.28;48.98
40059;SHT31;25763;49.972;8.568;2023-08-21T11:13:24;32.32;48.67
40059;SHT31;25763;49.972;8.568;2023-08-21T11:15:57;32.38;48.32
40059;SHT31;25763;49.972;8.568;2023-08-21T11:18:29;32.32;48.23
40059;SHT31;25763;49.972;8.568;2023-08-21T11:21:03;32.43;48.91
40059;SHT31;25763;49.972;8.568;2023-08-21T11:23:32;32.74;49.77
40059;SHT31;25763;49.972;8.568;2023-08-21T11:25:58;32.83;47.62
40059;SHT31;25763;49.972;8.568;2023-08-21T11:28:23;32.64;48.89
40059;SHT31;25763;49.972;8.568;2023-08-21T11:30:48;32.22;51.50
40059;SHT31;25763;49.972;8.568;2023-08-21T11:33:14;32.60;50.96
40059;SHT31;25763;49.972;8.568;2023-08-21T11:35:40;32.92;49.75
40059;SHT31;25763;49.972;8.568;2023-08-21T11:38:06;33.03;49.92
40059;SHT31;25763;49.972;8.568;2023-08-21T11:40:35;33.12;49.48
40059;SHT31;25763;49.972;8.568;2023-08-21T11:43:01;32.98;49.60
40059;SHT31;25763;49.972;8.568;2023-08-21T11:45:27;32.91;49.73
40059;SHT31;25763;49.972;8.568;2023-08-21T11:47:55;33.12;50.25
40059;SHT31;25763;49.972;8.568;2023-08-21T11:50:20;33.01;48.07
40059;SHT31;25763;49.972;8.568;2023-08-21T11:52:46;33.15;50.30
40059;SHT31;25763;49.972;8.568;2023-08-21T11:55:11;33.01;48.82
40059;SHT31;25763;49.972;8.568;2023-08-21T11:57:50;33.08;48.58
40059;SHT31;25763;49.972;8.568;2023-08-21T12:00:16;33.53;50.58
40059;SHT31;25763;49.972;8.568;2023-08-21T12:02:55;33.57;46.69
40059;SHT31;25763;49.972;8.568;2023-08-21T12:05:21;33.71;46.71
40059;SHT31;25763;49.972;8.568;2023-08-21T12:07:46;33.53;46.09
40059;SHT31;25763;49.972;8.568;2023-08-21T12:10:12;32.45;46.77
40059;SHT31;25763;49.972;8.568;2023-08-21T12:12:37;32.83;46.61
40059;SHT31;25763;49.972;8.568;2023-08-21T12:15:03;32.94;46.67
40059;SHT31;25763;49.972;8.568;2023-08-21T12:17:28;33.03;46.95
40059;SHT31;25763;49.972;8.568;2023-08-21T12:19:53;33.07;46.46
40059;SHT31;25763;49.972;8.568;2023-08-21T12:22:19;32.79;46.98
40059;SHT31;25763;49.972;8.568;2023-08-21T12:24:45;33.22;48.62
40059;SHT31;25763;49.972;8.568;2023-08-21T12:27:10;33.46;45.52
40059;SHT31;25763;49.972;8.568;2023-08-21T12:29:35;33.30;43.07
40059;SHT31;25763;49.972;8.568;2023-08-21T12:32:02;33.43;43.59
40059;SHT31;25763;49.972;8.568;2023-08-21T12:34:28;33.45;44.27
40059;SHT31;25763;49.972;8.568;2023-08-21T12:36:54;33.77;41.80
40059;SHT31;25763;49.972;8.568;2023-08-21T12:39:19;33.67;41.72
40059;SHT31;25763;49.972;8.568;2023-08-21T12:41:45;33.59;42.07
40059;SHT31;25763;49.972;8.568;2023-08-21T12:44:11;33.33;43.33
40059;SHT31;25763;49.972;8.568;2023-08-21T12:46:38;33.42;42.69
40059;SHT31;25763;49.972;8.568;2023-08-21T12:49:03;33.70;41.79
40059;SHT31;25763;49.972;8.568;2023-08-21T12:51:29;33.90;42.45
40059;SHT31;25763;49.972;8.568;2023-08-21T12:53:55;34.36;41.33
40059;SHT31;25763;49.972;8.568;2023-08-21T12:56:21;34.59;42.11
40059;SHT31;25763;49.972;8.568;2023-08-21T12:58:47;34.56;39.83
40059;SHT31;25763;49.972;8.568;2023-08-21T13:01:13;34.64;40.80
40059;SHT31;25763;49.972;8.568;2023-08-21T13:03:38;34.13;40.30
40059;SHT31;25763;49.972;8.568;2023-08-21T13:06:04;34.11;41.34
40059;SHT31;25763;49.972;8.568;2023-08-21T13:08:30;34.23;40.98
40059;SHT31;25763;49.972;8.568;2023-08-21T13:10:55;33.93;39.18
40059;SHT31;25763;49.972;8.568;2023-08-21T13:13:21;34.05;38.74
40059;SHT31;25763;49.972;8.568;2023-08-21T13:15:46;34.15;39.62
40059;SHT31;25763;49.972;8.568;2023-08-21T13:18:12;34.31;40.10
40059;SHT31;25763;49.972;8.568;2023-08-21T13:20:40;34.36;39.81
40059;SHT31;25763;49.972;8.568;2023-08-21T13:23:05;34.25;38.70
40059;SHT31;25763;49.972;8.568;2023-08-21T13:25:31;34.32;39.43
40059;SHT31;25763;49.972;8.568;2023-08-21T13:27:56;34.28;40.01
40059;SHT31;25763;49.972;8.568;2023-08-21T13:30:22;34.66;39.65
40059;SHT31;25763;49.972;8.568;2023-08-21T13:32:48;34.31;39.08
40059;SHT31;25763;49.972;8.568;2023-08-21T13:35:13;34.22;37.78
40059;SHT31;25763;49.972;8.568;2023-08-21T13:37:39;34.31;37.99
40059;SHT31;25763;49.972;8.568;2023-08-21T13:40:05;34.09;37.66
40059;SHT31;25763;49.972;8.568;2023-08-21T13:42:40;34.01;38.47
40059;SHT31;25763;49.972;8.568;2023-08-21T13:45:11;33.66;37.54
40059;SHT31;25763;49.972;8.568;2023-08-21T13:47:44;34.08;39.08
40059;SHT31;25763;49.972;8.568;2023-08-21T13:50:11;34.33;40.03
40059;SHT31;25763;49.972;8.568;2023-08-21T13:52:37;34.37;40.02
40059;SHT31;25763;49.972;8.568;2023-08-21T13:55:05;34.28;41.35
40059;SHT31;25763;49.972;8.568;2023-08-21T13:57:31;34.06;41.38
40059;SHT31;25763;49.972;8.568;2023-08-21T13:59:58;33.97;40.40
40059;SHT31;25763;49.972;8.568;2023-08-21T14:02:24;34.05;40.35
40059;SHT31;25763;49.972;8.568;2023-08-21T14:04:49;34.25;41.52
40059;SHT31;25763;49.972;8.568;2023-08-21T14:07:15;34.04;41.74
40059;SHT31;25763;49.972;8.568;2023-08-21T14:09:40;34.04;41.76
40059;SHT31;25763;49.972;8.568;2023-08-21T14:12:06;33.90;43.48
40059;SHT31;25763;49.972;8.568;2023-08-21T14:14:33;33.74;42.44
40059;SHT31;25763;49.972;8.568;2023-08-21T14:16:58;33.77;42.17
40059;SHT31;25763;49.972;8.568;2023-08-21T14:19:24;34.22;42.23
40059;SHT31;25763;49.972;8.568;2023-08-21T14:21:49;34.35;41.49
40059;SHT31;25763;49.972;8.568;2023-08-21T14:24:14;34.50;40.35
40059;SHT31;25763;49.972;8.568;2023-08-21T14:26:40;34.15;41.09
40059;SHT31;25763;49.972;8.568;2023-08-21T14:29:05;34.21;41.68
40059;SHT31;25763;49.972;8.568;2023-08-21T14:31:31;34.23;41.41
40059;SHT31;25763;49.972;8.568;2023-08-21T14:33:56;34.04;41.59
40059;SHT31;25763;49.972;8.568;2023-08-21T14:36:23;33.60;42.33
40059;SHT31;25763;49.972;8.568;2023-08-21T14:38:48;33.46;43.20
40059;SHT31;25763;49.972;8.568;2023-08-21T14:41:13;33.73;42.85
40059;SHT31;25763;49.972;8.568;2023-08-21T14:43:39;33.84;43.53
40059;SHT31;25763;49.972;8.568;2023-08-21T14:46:05;33.95;43.28
40059;SHT31;25763;49.972;8.568;2023-08-21T14:48:30;34.08;43.26
40059;SHT31;25763;49.972;8.568;2023-08-21T14:50:56;34.28;42.94
40059;SHT31;25763;49.972;8.568;2023-08-21T14:53:21;34.47;42.45
40059;SHT31;25763;49.972;8.568;2023-08-21T14:55:47;34.63;41.62
40059;SHT31;25763;49.972;8.568;2023-08-21T14:58:12;34.40;42.89
40059;SHT31;25763;49.972;8.568;2023-08-21T15:00:37;34.16;42.04
40059;SHT31;25763;49.972;8.568;2023-08-21T15:03:03;33.67;43.28
40059;SHT31;25763;49.972;8.568;2023-08-21T15:05:28;33.73;42.70
40059;SHT31;25763;49.972;8.568;2023-08-21T15:07:54;33.90;43.08
40059;SHT31;25763;49.972;8.568;2023-08-21T15:10:20;34.15;42.83
40059;SHT31;25763;49.972;8.568;2023-08-21T15:12:46;34.05;42.55
40059;SHT31;25763;49.972;8.568;2023-08-21T15:15:11;34.28;42.26
40059;SHT31;25763;49.972;8.568;2023-08-21T15:17:37;34.28;42.76
40059;SHT31;25763;49.972;8.568;2023-08-21T15:20:03;34.28;42.50
40059;SHT31;25763;49.972;8.568;2023-08-21T15:22:30;34.23;42.59
40059;SHT31;25763;49.972;8.568;2023-08-21T15:24:56;34.15;41.77
40059;SHT31;25763;49.972;8.568;2023-08-21T15:27:21;33.95;43.76
40059;SHT31;25763;49.972;8.568;2023-08-21T15:29:47;33.88;43.12